createdAt,value
2018-05-02T00:00:16.446Z,6.27
2018-05-02T00:02:43.996Z,7.97
2018-05-02T00:05:11.575Z,6.67
2018-05-02T00:07:39.127Z,6.73
2018-05-02T00:10:06.672Z,7.87
2018-05-02T00:12:34.251Z,6.17
2018-05-02T00:15:01.815Z,6.23
2018-05-02T00:17:29.360Z,5.30
2018-05-02T00:19:56.969Z,6.87
2018-05-02T00:22:24.518Z,6.60
2018-05-02T00:24:52.076Z,5.87
2018-05-02T00:27:19.668Z,7.30
2018-05-02T00:29:47.981Z,6.23
2018-05-02T00:32:15.554Z,7.10
2018-05-02T00:34:43.149Z,6.90
2018-05-02T00:37:10.700Z,7.07
2018-05-02T00:39:38.242Z,6.47
2018-05-02T00:42:06.183Z,6.60
2018-05-02T00:44:33.733Z,6.60
2018-05-02T00:47:01.283Z,5.87
2018-05-02T00:49:29.629Z,6.20
2018-05-02T00:51:57.176Z,6.50
2018-05-02T00:54:24.729Z,6.97
2018-05-02T00:56:52.315Z,6.17
2018-05-02T00:59:19.874Z,6.37
2018-05-02T01:01:47.416Z,6.00
2018-05-02T01:04:15.012Z,6.50
2018-05-02T01:06:42.553Z,6.70
2018-05-02T01:09:10.102Z,6.43
2018-05-02T01:11:37.690Z,8.80
2018-05-02T01:14:05.235Z,6.30
2018-05-02T01:16:32.792Z,6.23
2018-05-02T01:19:00.371Z,6.50
2018-05-02T01:21:27.915Z,6.60
2018-05-02T01:23:55.459Z,6.13
2018-05-02T01:26:23.067Z,6.47
2018-05-02T01:28:51.382Z,5.90
2018-05-02T01:31:18.930Z,5.80
2018-05-02T01:33:46.513Z,5.50
2018-05-02T01:36:14.114Z,6.23
2018-05-02T01:38:41.664Z,7.83
2018-05-02T01:41:09.247Z,8.50
2018-05-02T01:43:36.803Z,9.10
2018-05-02T01:46:04.348Z,6.30
2018-05-02T01:48:32.507Z,9.17
2018-05-02T01:51:00.058Z,9.05
2018-05-02T01:53:27.609Z,6.40
2018-05-02T01:55:55.195Z,6.57
2018-05-02T01:58:22.737Z,5.87
2018-05-02T02:00:50.284Z,6.60
2018-05-02T02:03:17.872Z,5.90
2018-05-02T02:05:45.421Z,5.73
2018-05-02T02:08:12.965Z,5.80
2018-05-02T02:10:41.068Z,6.83
2018-05-02T02:13:08.614Z,6.50
2018-05-02T02:15:36.161Z,6.37
2018-05-02T02:18:03.752Z,5.93
2018-05-02T02:20:31.292Z,5.53
2018-05-02T02:22:58.844Z,6.17
2018-05-02T02:25:26.414Z,5.87
2018-05-02T02:27:53.968Z,6.40
2018-05-02T02:30:21.515Z,5.93
2018-05-02T02:32:50.444Z,6.27
2018-05-02T02:35:17.997Z,6.40
2018-05-02T02:37:45.542Z,6.07
2018-05-02T02:40:13.126Z,5.40
2018-05-02T02:42:40.679Z,5.80
2018-05-02T02:45:08.221Z,5.70
2018-05-02T02:47:36.121Z,6.30
2018-05-02T02:50:03.677Z,6.07
2018-05-02T02:52:31.216Z,6.07
2018-05-02T02:54:58.809Z,6.13
2018-05-02T02:57:26.360Z,6.13
2018-05-02T02:59:53.913Z,6.97
2018-05-02T03:02:21.502Z,6.87
2018-05-02T03:04:49.052Z,6.53
2018-05-02T03:07:16.605Z,6.33
2018-05-02T03:09:44.196Z,5.93
2018-05-02T03:12:11.741Z,6.77
2018-05-02T03:14:39.289Z,8.43
2018-05-02T03:17:06.902Z,9.37
2018-05-02T03:19:35.220Z,7.53
2018-05-02T03:22:02.775Z,7.93
2018-05-02T03:24:30.356Z,9.90
2018-05-02T03:26:57.921Z,9.30
2018-05-02T03:29:25.464Z,9.17
2018-05-02T03:31:53.049Z,12.80
2018-05-02T03:34:20.606Z,14.53
2018-05-02T03:36:48.167Z,17.83
2018-05-02T03:39:16.109Z,11.53
2018-05-02T03:41:43.667Z,9.60
2018-05-02T03:44:11.217Z,8.73
2018-05-02T03:46:38.809Z,9.67
2018-05-02T03:49:06.368Z,14.17
2018-05-02T03:51:33.920Z,10.77
2018-05-02T03:54:01.512Z,8.67
2018-05-02T03:56:29.072Z,9.70
2018-05-02T03:58:56.624Z,8.93
2018-05-02T04:02:01.561Z,12.90
2018-05-02T04:05:06.247Z,8.27
2018-05-02T04:07:33.828Z,8.93
2018-05-02T04:10:01.390Z,8.17
2018-05-02T04:12:28.952Z,8.70
2018-05-02T04:14:56.543Z,8.90
2018-05-02T04:17:24.083Z,7.63
2018-05-02T04:19:51.633Z,8.73
2018-05-02T04:22:19.843Z,8.30
2018-05-02T04:24:47.398Z,7.77
2018-05-02T04:27:14.954Z,8.17
2018-05-02T04:29:42.538Z,8.73
2018-05-02T04:32:10.100Z,13.80
2018-05-02T04:34:37.660Z,18.67
2018-05-02T04:37:05.255Z,18.50
2018-05-02T04:39:33.576Z,12.07
2018-05-02T04:42:01.126Z,10.80
2018-05-02T04:44:28.735Z,10.63
2018-05-02T04:46:56.283Z,9.63
2018-05-02T04:49:23.837Z,14.10
2018-05-02T04:51:51.429Z,13.67
2018-05-02T04:54:18.982Z,13.47
2018-05-02T04:56:46.534Z,10.10
2018-05-02T04:59:14.124Z,11.17
2018-05-02T05:01:42.436Z,8.67
2018-05-02T05:04:10.003Z,10.10
2018-05-02T05:06:37.640Z,8.97
2018-05-02T05:09:05.193Z,15.57
2018-05-02T05:11:32.751Z,9.03
2018-05-02T05:14:00.355Z,8.60
2018-05-02T05:16:27.908Z,10.63
2018-05-02T05:18:55.494Z,9.23
2018-05-02T05:21:23.040Z,8.57
2018-05-02T05:23:50.589Z,9.97
2018-05-02T05:26:18.148Z,10.23
2018-05-02T05:28:46.334Z,12.33
2018-05-02T05:31:13.883Z,9.87
2018-05-02T05:33:41.436Z,9.93
2018-05-02T05:36:09.756Z,9.27
2018-05-02T05:38:37.317Z,8.63
2018-05-02T05:41:04.871Z,11.60
2018-05-02T05:43:32.486Z,12.13
2018-05-02T05:46:00.791Z,11.40
2018-05-02T05:48:28.343Z,10.10
2018-05-02T05:50:55.943Z,9.27
2018-05-02T05:53:23.497Z,9.17
2018-05-02T05:55:51.050Z,10.40
2018-05-02T05:58:19.217Z,8.83
2018-05-02T06:00:46.835Z,7.67
2018-05-02T06:03:14.306Z,7.93
2018-05-02T06:05:41.952Z,7.83
2018-05-02T06:08:10.276Z,8.60
2018-05-02T06:10:37.826Z,8.77
2018-05-02T06:13:06.018Z,10.03
2018-05-02T06:15:33.579Z,9.23
2018-05-02T06:18:01.133Z,8.47
2018-05-02T06:20:28.774Z,8.77
2018-05-02T06:22:56.332Z,8.80
2018-05-02T06:25:23.882Z,9.07
2018-05-02T06:27:52.620Z,9.87
2018-05-02T06:30:20.186Z,9.17
2018-05-02T06:32:47.740Z,9.07
2018-05-02T06:35:16.223Z,8.70
2018-05-02T06:37:43.886Z,8.43
2018-05-02T06:40:11.324Z,8.53
2018-05-02T06:42:38.918Z,8.47
2018-05-02T06:45:06.470Z,7.80
2018-05-02T06:47:34.027Z,8.40
2018-05-02T06:50:01.682Z,8.43
2018-05-02T06:52:29.225Z,7.23
2018-05-02T06:54:57.827Z,7.60
2018-05-02T06:57:26.643Z,7.47
2018-05-02T06:59:54.190Z,7.90
2018-05-02T07:02:21.742Z,6.77
2018-05-02T07:04:49.382Z,9.00
2018-05-02T07:07:16.951Z,7.73
2018-05-02T07:09:44.482Z,7.93
2018-05-02T07:12:12.850Z,7.83
2018-05-02T07:14:40.395Z,7.23
2018-05-02T07:17:07.945Z,7.80
2018-05-02T07:19:35.593Z,7.50
2018-05-02T07:22:03.132Z,9.60
2018-05-02T07:24:30.683Z,8.90
2018-05-02T07:26:58.794Z,9.23
2018-05-02T07:29:26.350Z,8.53
2018-05-02T07:31:53.901Z,7.87
2018-05-02T07:34:21.757Z,7.73
2018-05-02T07:36:49.304Z,7.67
2018-05-02T07:39:16.850Z,7.53
2018-05-02T07:41:45.214Z,6.70
2018-05-02T07:44:12.771Z,7.10
2018-05-02T07:46:40.326Z,7.47
2018-05-02T07:49:07.931Z,9.55
2018-05-02T07:51:35.477Z,8.23
2018-05-02T07:54:03.017Z,7.23
2018-05-02T07:56:30.640Z,7.50
2018-05-02T07:58:58.174Z,7.53
2018-05-02T08:01:25.727Z,6.90
2018-05-02T08:03:53.330Z,7.07
2018-05-02T08:06:20.880Z,7.33
2018-05-02T08:08:48.431Z,7.40
2018-05-02T08:11:16.028Z,8.27
2018-05-02T08:13:43.587Z,8.17
2018-05-02T08:16:11.148Z,7.30
2018-05-02T08:18:39.197Z,8.98
2018-05-02T08:21:06.737Z,8.40
2018-05-02T08:23:34.279Z,8.07
2018-05-02T08:26:02.663Z,8.13
2018-05-02T08:28:30.205Z,8.20
2018-05-02T08:30:57.746Z,8.07
2018-05-02T08:33:25.338Z,8.73
2018-05-02T08:35:53.645Z,7.53
2018-05-02T08:38:21.193Z,8.82
2018-05-02T08:40:49.593Z,8.03
2018-05-02T08:43:17.144Z,8.63
2018-05-02T08:45:44.691Z,8.20
2018-05-02T08:48:13.081Z,8.40
2018-05-02T08:50:40.620Z,7.50
2018-05-02T08:53:08.174Z,7.13
2018-05-02T08:55:35.777Z,6.27
2018-05-02T08:58:03.319Z,6.23
2018-05-02T09:00:31.644Z,6.77
2018-05-02T09:03:00.205Z,6.00
2018-05-02T09:05:26.795Z,5.13
2018-05-02T09:07:54.333Z,5.00
2018-05-02T09:10:21.921Z,5.20
2018-05-02T09:12:49.467Z,4.80
2018-05-02T09:15:17.024Z,4.53
2018-05-02T09:17:44.626Z,4.80
2018-05-02T09:20:12.928Z,4.87
2018-05-02T09:22:40.476Z,4.53
2018-05-02T09:25:08.110Z,4.17
2018-05-02T09:27:36.427Z,3.97
2018-05-02T09:30:03.965Z,5.17
2018-05-02T09:32:32.343Z,3.43
2018-05-02T09:35:00.649Z,3.80
2018-05-02T09:37:28.198Z,4.13
2018-05-02T09:39:56.481Z,3.37
2018-05-02T09:42:24.027Z,3.30
2018-05-02T09:44:51.576Z,3.07
2018-05-02T09:47:19.200Z,2.90
2018-05-02T09:49:46.770Z,3.40
2018-05-02T09:52:14.322Z,2.67
2018-05-02T09:54:41.944Z,2.43
2018-05-02T09:57:09.491Z,3.03
2018-05-02T09:59:37.030Z,2.90
2018-05-02T10:02:04.662Z,3.30
2018-05-02T10:04:32.269Z,3.20
2018-05-02T10:07:00.188Z,3.10
2018-05-02T10:09:27.830Z,2.93
2018-05-02T10:11:55.376Z,3.63
2018-05-02T10:14:22.922Z,3.10
2018-05-02T10:16:51.317Z,2.77
2018-05-02T10:19:18.863Z,2.87
2018-05-02T10:21:47.174Z,3.20
2018-05-02T10:24:14.805Z,2.90
2018-05-02T10:26:43.117Z,3.13
2018-05-02T10:29:10.662Z,3.30
2018-05-02T10:31:38.258Z,2.70
2018-05-02T10:34:05.804Z,3.10
2018-05-02T10:36:33.358Z,2.43
2018-05-02T10:39:00.992Z,2.23
2018-05-02T10:41:29.296Z,2.90
2018-05-02T10:43:56.838Z,2.40
2018-05-02T10:46:25.656Z,2.93
2018-05-02T10:48:53.205Z,3.00
2018-05-02T10:51:20.750Z,2.80
2018-05-02T10:53:49.813Z,2.87
2018-05-02T10:56:17.355Z,2.87
2018-05-02T10:58:44.915Z,3.10
2018-05-02T11:01:12.865Z,2.97
2018-05-02T11:03:40.404Z,3.00
2018-05-02T11:06:07.947Z,2.67
2018-05-02T11:08:36.311Z,2.47
2018-05-02T11:11:03.852Z,2.80
2018-05-02T11:13:31.392Z,2.83
2018-05-02T11:15:59.020Z,2.63
2018-05-02T11:18:27.334Z,2.50
2018-05-02T11:20:54.881Z,2.60
2018-05-02T11:23:23.165Z,2.70
2018-05-02T11:25:50.711Z,2.40
2018-05-02T11:28:18.331Z,1.93
2018-05-02T11:30:46.617Z,2.00
2018-05-02T11:33:14.158Z,2.17
2018-05-02T11:35:41.705Z,2.50
2018-05-02T11:38:09.304Z,2.45
2018-05-02T11:40:36.853Z,2.37
2018-05-02T11:43:04.403Z,2.30
2018-05-02T11:45:31.992Z,2.83
2018-05-02T11:47:59.541Z,2.70
2018-05-02T11:50:27.094Z,2.50
2018-05-02T11:52:54.689Z,2.50
2018-05-02T11:55:23.000Z,2.70
2018-05-02T11:57:50.562Z,2.33
2018-05-02T12:00:18.143Z,2.43
2018-05-02T12:02:45.692Z,2.10
2018-05-02T12:05:13.244Z,2.20
2018-05-02T12:07:40.867Z,2.20
2018-05-02T12:10:08.408Z,2.30
2018-05-02T12:12:35.962Z,2.50
2018-05-02T12:15:03.597Z,2.20
2018-05-02T12:17:31.137Z,2.50
2018-05-02T12:19:58.829Z,2.20
2018-05-02T12:22:26.425Z,2.60
2018-05-02T12:24:53.976Z,2.80
2018-05-02T12:27:21.522Z,2.33
2018-05-02T12:29:49.155Z,2.60
2018-05-02T12:32:16.705Z,2.23
2018-05-02T12:34:44.248Z,2.20
2018-05-02T12:37:14.596Z,2.30
2018-05-02T12:39:42.149Z,1.90
2018-05-02T12:42:09.696Z,2.40
2018-05-02T12:44:38.053Z,1.97
2018-05-02T12:47:05.617Z,1.87
2018-05-02T12:49:33.154Z,2.10
2018-05-02T12:52:00.744Z,2.40
2018-05-02T12:54:29.060Z,2.55
2018-05-02T12:56:56.600Z,2.40
2018-05-02T12:59:25.019Z,2.23
2018-05-02T13:01:52.506Z,2.10
2018-05-02T13:04:20.048Z,2.07
2018-05-02T13:06:48.000Z,2.25
2018-05-02T13:09:15.544Z,2.20
2018-05-02T13:11:43.086Z,2.30
2018-05-02T13:14:12.431Z,2.60
2018-05-02T13:16:39.973Z,2.40
2018-05-02T13:19:07.515Z,1.60
2018-05-02T13:21:36.854Z,2.70
2018-05-02T13:24:04.402Z,2.33
2018-05-02T13:26:31.946Z,2.60
2018-05-02T13:28:59.893Z,2.30
2018-05-02T13:31:27.432Z,2.50
2018-05-02T13:33:54.985Z,2.00
2018-05-02T13:36:22.575Z,2.17
2018-05-02T13:38:50.115Z,2.30
2018-05-02T13:41:17.690Z,1.93
2018-05-02T13:43:45.287Z,1.97
2018-05-02T13:46:12.835Z,2.07
2018-05-02T13:48:40.343Z,2.63
2018-05-02T13:51:08.409Z,2.30
2018-05-02T13:53:35.985Z,2.30
2018-05-02T13:56:03.491Z,2.10
2018-05-02T13:58:32.726Z,2.10
2018-05-02T14:01:00.346Z,1.97
2018-05-02T14:03:27.817Z,2.17
2018-05-02T14:05:55.421Z,2.03
2018-05-02T14:08:23.032Z,2.00
2018-05-02T14:10:50.518Z,2.30
2018-05-02T14:13:18.137Z,2.10
2018-05-02T14:15:45.679Z,2.00
2018-05-02T14:18:13.218Z,1.70
2018-05-02T14:20:40.841Z,1.70
2018-05-02T14:23:09.166Z,1.77
2018-05-02T14:25:36.703Z,1.70
2018-05-02T14:28:04.595Z,1.80
2018-05-02T14:30:32.134Z,1.67
2018-05-02T14:33:00.970Z,1.73
2018-05-02T14:35:27.682Z,1.10
2018-05-02T14:37:55.218Z,1.60
2018-05-02T14:40:22.762Z,1.67
2018-05-02T14:42:50.365Z,1.80
2018-05-02T14:45:17.933Z,1.60
2018-05-02T14:47:45.474Z,1.80
2018-05-02T14:50:13.978Z,2.37
2018-05-02T14:52:41.841Z,2.30
2018-05-02T14:55:09.384Z,1.83
2018-05-02T14:57:37.487Z,1.70
2018-05-02T15:00:05.063Z,1.70
2018-05-02T15:02:32.598Z,1.93
2018-05-02T15:05:01.177Z,1.80
2018-05-02T15:07:28.720Z,1.90
2018-05-02T15:09:56.264Z,1.43
2018-05-02T15:12:23.890Z,2.07
2018-05-02T15:14:51.433Z,1.73
2018-05-02T15:17:18.977Z,1.60
2018-05-02T15:19:46.569Z,1.80
2018-05-02T15:22:14.109Z,1.70
2018-05-02T15:24:41.735Z,2.00
2018-05-02T15:27:09.285Z,1.60
2018-05-02T15:29:37.621Z,1.57
2018-05-02T15:32:05.134Z,1.50
2018-05-02T15:34:33.271Z,1.70
2018-05-02T15:37:00.816Z,1.60
2018-05-02T15:39:28.323Z,1.50
2018-05-02T15:41:56.693Z,1.53
2018-05-02T15:44:24.997Z,1.60
2018-05-02T15:46:52.546Z,1.57
2018-05-02T15:49:20.973Z,1.80
2018-05-02T15:51:48.484Z,1.60
2018-05-02T15:54:16.793Z,2.13
2018-05-02T15:56:44.387Z,1.50
2018-05-02T15:59:11.942Z,1.70
2018-05-02T16:01:39.477Z,1.80
2018-05-02T16:04:07.182Z,1.30
2018-05-02T16:06:35.406Z,1.27
2018-05-02T16:09:02.959Z,1.33
2018-05-02T16:11:30.561Z,1.60
2018-05-02T16:13:58.103Z,1.63
2018-05-02T16:16:25.644Z,1.50
2018-05-02T16:18:53.235Z,1.33
2018-05-02T16:21:20.780Z,1.80
2018-05-02T16:23:48.322Z,1.40
2018-05-02T16:26:16.173Z,1.60
2018-05-02T16:28:44.481Z,1.80
2018-05-02T16:31:12.059Z,1.93
2018-05-02T16:33:39.657Z,1.77
2018-05-02T16:36:07.206Z,1.80
2018-05-02T16:38:34.752Z,1.90
2018-05-02T16:41:02.707Z,1.30
2018-05-02T16:43:30.284Z,1.40
2018-05-02T16:45:57.812Z,1.80
2018-05-02T16:48:25.403Z,1.80
2018-05-02T16:50:52.951Z,1.60
2018-05-02T16:53:20.505Z,1.63
2018-05-02T16:55:48.998Z,1.50
2018-05-02T16:58:16.547Z,1.73
2018-05-02T17:00:44.090Z,2.00
2018-05-02T17:03:11.690Z,1.73
2018-05-02T17:05:39.238Z,1.40
2018-05-02T17:08:06.779Z,1.63
2018-05-02T17:10:34.379Z,1.60
2018-05-02T17:13:01.925Z,1.73
2018-05-02T17:15:29.470Z,1.70
2018-05-02T17:17:57.457Z,1.93
2018-05-02T17:20:25.002Z,1.70
2018-05-02T17:22:52.553Z,1.80
2018-05-02T17:25:20.456Z,1.60
2018-05-02T17:27:48.041Z,1.70
2018-05-02T17:30:15.559Z,1.90
2018-05-02T17:32:43.137Z,1.80
2018-05-02T17:35:10.687Z,2.33
2018-05-02T17:37:38.226Z,1.77
2018-05-02T17:40:06.296Z,2.20
2018-05-02T17:42:33.840Z,2.20
2018-05-02T17:45:02.156Z,2.03
2018-05-02T17:47:29.758Z,2.10
2018-05-02T17:49:57.296Z,2.10
2018-05-02T17:52:24.840Z,2.10
2018-05-02T17:54:52.442Z,2.30
2018-05-02T17:57:19.992Z,2.35
2018-05-02T17:59:47.541Z,2.30
2018-05-02T18:02:15.157Z,2.40
2018-05-02T18:04:44.932Z,2.50
2018-05-02T18:07:12.505Z,2.13
2018-05-02T18:09:40.433Z,2.53
2018-05-02T18:12:08.007Z,2.10
2018-05-02T18:14:35.517Z,2.50
2018-05-02T18:17:03.881Z,2.13
2018-05-02T18:19:31.426Z,1.87
2018-05-02T18:21:58.967Z,1.90
2018-05-02T18:24:27.010Z,2.10
2018-05-02T18:26:54.557Z,2.10
2018-05-02T18:29:22.102Z,2.20
2018-05-02T18:31:51.255Z,2.33
2018-05-02T18:34:18.679Z,1.90
2018-05-02T18:36:46.228Z,2.30
2018-05-02T18:39:14.616Z,2.33
2018-05-02T18:41:42.937Z,2.40
2018-05-02T18:44:10.479Z,2.23
2018-05-02T18:46:38.074Z,2.17
2018-05-02T18:49:05.614Z,2.30
2018-05-02T18:51:33.154Z,2.50
2018-05-02T18:54:00.742Z,2.60
2018-05-02T18:56:28.291Z,2.80
2018-05-02T18:58:55.823Z,2.97
2018-05-02T19:01:23.414Z,3.40
2018-05-02T19:03:51.048Z,2.93
2018-05-02T19:06:18.497Z,2.63
2018-05-02T19:08:46.852Z,2.20
2018-05-02T19:11:14.398Z,2.40
2018-05-02T19:14:00.385Z,2.70
2018-05-02T19:16:27.912Z,2.80
2018-05-02T19:19:13.389Z,3.20
2018-05-02T19:21:40.942Z,2.80
2018-05-02T19:24:08.493Z,3.10
2018-05-02T19:26:36.858Z,2.90
2018-05-02T19:29:04.410Z,3.43
2018-05-02T19:31:51.218Z,3.13
2018-05-02T19:34:18.737Z,3.00
2018-05-02T19:36:46.284Z,3.58
2018-05-02T19:39:15.173Z,3.30
2018-05-02T19:42:00.763Z,3.07
2018-05-02T19:44:29.273Z,3.20
2018-05-02T19:46:56.812Z,3.43
2018-05-02T19:49:24.349Z,2.73
2018-05-02T19:52:10.480Z,2.40
2018-05-02T19:54:38.021Z,3.13
2018-05-02T19:57:05.648Z,2.83
2018-05-02T19:59:33.915Z,3.47
2018-05-02T20:02:19.347Z,3.37
2018-05-02T20:04:46.977Z,3.07
2018-05-02T20:07:32.501Z,3.10
2018-05-02T20:10:18.204Z,3.00
2018-05-02T20:13:04.017Z,2.80
2018-05-02T20:15:31.965Z,3.27
2018-05-02T20:17:59.517Z,3.20
2018-05-02T20:20:27.060Z,3.77
2018-05-02T20:22:55.049Z,3.40
2018-05-02T20:25:22.600Z,3.40
2018-05-02T20:27:50.132Z,3.27
2018-05-02T20:30:18.489Z,3.57
2018-05-02T20:32:46.044Z,3.60
2018-05-02T20:35:13.588Z,3.33
2018-05-02T20:37:41.177Z,3.53
2018-05-02T20:40:08.718Z,3.50
2018-05-02T20:42:36.289Z,3.27
2018-05-02T20:45:03.903Z,3.47
2018-05-02T20:47:31.453Z,3.50
2018-05-02T20:49:58.995Z,3.40
2018-05-02T20:52:30.578Z,3.67
2018-05-02T20:54:58.026Z,3.77
2018-05-02T20:57:25.477Z,3.60
2018-05-02T20:59:53.945Z,3.70
2018-05-02T21:02:22.252Z,3.67
2018-05-02T21:04:49.812Z,3.80
2018-05-02T21:07:18.154Z,4.60
2018-05-02T21:09:45.696Z,4.30
2018-05-02T21:12:13.243Z,4.17
2018-05-02T21:14:40.831Z,4.37
2018-05-02T21:17:08.380Z,4.27
2018-05-02T21:19:35.927Z,4.60
2018-05-02T21:22:04.092Z,4.17
2018-05-02T21:24:31.631Z,4.20
2018-05-02T21:26:59.189Z,4.17
2018-05-02T21:29:26.794Z,4.00
2018-05-02T21:31:54.339Z,4.77
2018-05-02T21:34:21.876Z,4.97
2018-05-02T21:36:49.484Z,4.30
2018-05-02T21:39:17.033Z,4.67
2018-05-02T21:41:44.573Z,4.47
2018-05-02T21:44:13.056Z,4.87
2018-05-02T21:46:40.599Z,4.60
2018-05-02T21:49:08.145Z,5.23
2018-05-02T21:51:36.480Z,4.77
2018-05-02T21:54:04.029Z,4.60
2018-05-02T21:56:31.611Z,4.93
2018-05-02T21:58:59.179Z,4.73
2018-05-02T22:01:26.726Z,4.83
2018-05-02T22:03:54.270Z,5.23
2018-05-02T22:06:21.851Z,4.80
2018-05-02T22:08:49.501Z,4.90
2018-05-02T22:11:17.051Z,4.90
2018-05-02T22:13:45.508Z,4.57
2018-05-02T22:16:13.054Z,4.43
2018-05-02T22:18:41.362Z,4.60
2018-05-02T22:21:08.934Z,5.10
2018-05-02T22:23:36.474Z,4.57
2018-05-02T22:26:04.017Z,4.93
2018-05-02T22:28:32.356Z,5.10
2018-05-02T22:30:59.900Z,4.53
2018-05-02T22:33:27.450Z,4.63
2018-05-02T22:35:55.029Z,4.90
2018-05-02T22:38:22.568Z,5.10
2018-05-02T22:40:50.114Z,4.63
2018-05-02T22:43:17.699Z,5.47
2018-05-02T22:45:45.248Z,5.40
2018-05-02T22:48:12.779Z,5.87
2018-05-02T22:50:41.137Z,5.67
2018-05-02T22:53:08.678Z,5.23
2018-05-02T22:55:36.224Z,6.82
2018-05-02T22:58:04.292Z,6.62
2018-05-02T23:00:31.829Z,5.53
2018-05-02T23:02:59.367Z,5.73
2018-05-02T23:05:27.718Z,5.80
2018-05-02T23:07:55.280Z,5.90
2018-05-02T23:10:22.857Z,5.53
2018-05-02T23:12:50.430Z,6.17
2018-05-02T23:15:17.950Z,5.93
2018-05-02T23:17:45.491Z,6.00
2018-05-02T23:20:13.075Z,4.90
2018-05-02T23:22:40.615Z,5.63
2018-05-02T23:25:08.161Z,4.80
2018-05-02T23:27:35.729Z,5.40
2018-05-02T23:30:03.270Z,5.13
2018-05-02T23:32:30.816Z,5.60
2018-05-02T23:34:59.157Z,5.90
2018-05-02T23:37:26.702Z,5.63
2018-05-02T23:39:54.239Z,5.47
2018-05-02T23:42:22.232Z,5.57
2018-05-02T23:44:49.781Z,5.40
2018-05-02T23:47:17.325Z,5.27
2018-05-02T23:49:45.658Z,5.27
2018-05-02T23:52:13.200Z,5.47
2018-05-02T23:54:40.740Z,5.50
2018-05-02T23:57:08.337Z,5.30
2018-05-02T23:59:35.868Z,5.33
